createdAt,value
2024-05-09T00:00:42.098Z,3.40
2024-05-09T00:03:10.958Z,3.38
2024-05-09T00:05:41.230Z,3.35
2024-05-09T00:08:10.038Z,3.10
2024-05-09T00:10:39.413Z,3.33
2024-05-09T00:13:08.523Z,3.70
2024-05-09T00:15:36.626Z,3.40
2024-05-09T00:18:05.839Z,3.55
2024-05-09T00:20:38.804Z,2.60
2024-05-09T00:23:12.551Z,3.13
2024-05-09T00:25:44.481Z,3.33
2024-05-09T00:28:13.009Z,3.08
2024-05-09T00:30:40.883Z,2.85
2024-05-09T00:33:09.885Z,3.35
2024-05-09T00:35:38.531Z,2.88
2024-05-09T00:38:06.162Z,3.00
2024-05-09T00:40:40.680Z,2.92
2024-05-09T00:43:14.820Z,3.08
2024-05-09T00:45:43.983Z,2.47
2024-05-09T00:48:16.430Z,2.38
2024-05-09T00:50:47.662Z,3.08
2024-05-09T00:53:16.947Z,2.60
2024-05-09T00:55:45.128Z,3.10
2024-05-09T00:58:16.145Z,2.78
2024-05-09T01:00:44.122Z,3.05
2024-05-09T01:03:13.608Z,3.20
2024-05-09T01:05:43.290Z,2.55
2024-05-09T01:08:11.920Z,2.78
2024-05-09T01:10:41.751Z,2.80
2024-05-09T01:13:11.270Z,2.60
2024-05-09T01:15:38.568Z,3.30
2024-05-09T01:18:10.709Z,3.15
2024-05-09T01:20:42.533Z,3.35
2024-05-09T01:23:13.155Z,3.08
2024-05-09T01:25:42.047Z,3.83
2024-05-09T01:28:09.350Z,2.53
2024-05-09T01:30:38.125Z,2.90
2024-05-09T01:33:08.693Z,3.10
2024-05-09T01:35:39.106Z,3.08
2024-05-09T01:38:07.381Z,2.80
2024-05-09T01:40:38.860Z,3.47
2024-05-09T01:43:12.073Z,3.67
2024-05-09T01:45:42.492Z,2.78
2024-05-09T01:48:11.357Z,2.90
2024-05-09T01:50:41.947Z,2.85
2024-05-09T01:53:13.163Z,3.00
2024-05-09T01:55:41.871Z,3.10
2024-05-09T01:58:09.819Z,3.95
2024-05-09T02:00:41.182Z,3.90
2024-05-09T02:03:14.895Z,3.63
2024-05-09T02:05:45.923Z,3.63
2024-05-09T02:08:15.663Z,3.80
2024-05-09T02:10:44.736Z,3.92
2024-05-09T02:13:13.002Z,3.78
2024-05-09T02:15:40.608Z,3.33
2024-05-09T02:18:08.973Z,3.10
2024-05-09T02:20:39.388Z,3.20
2024-05-09T02:23:08.566Z,3.03
2024-05-09T02:25:36.003Z,2.85
2024-05-09T02:28:04.871Z,3.83
2024-05-09T02:30:39.998Z,4.20
2024-05-09T02:33:11.988Z,3.60
2024-05-09T02:35:43.100Z,3.88
2024-05-09T02:38:11.534Z,4.10
2024-05-09T02:40:40.126Z,3.63
2024-05-09T02:43:10.220Z,3.33
2024-05-09T02:45:39.842Z,3.20
2024-05-09T02:48:10.408Z,3.33
2024-05-09T02:50:39.938Z,3.83
2024-05-09T02:53:08.901Z,3.65
2024-05-09T02:55:39.813Z,3.60
2024-05-09T02:58:07.885Z,3.50
2024-05-09T03:00:39.655Z,3.92
2024-05-09T03:03:12.207Z,3.60
2024-05-09T03:05:42.237Z,3.53
2024-05-09T03:08:10.060Z,3.38
2024-05-09T03:10:38.985Z,3.42
2024-05-09T03:13:13.348Z,3.70
2024-05-09T03:15:42.901Z,2.90
2024-05-09T03:18:11.129Z,3.40
2024-05-09T03:20:39.505Z,3.58
2024-05-09T03:23:09.786Z,3.67
2024-05-09T03:25:38.566Z,2.72
2024-05-09T03:28:07.760Z,3.25
2024-05-09T03:30:40.471Z,3.80
2024-05-09T03:33:13.152Z,3.70
2024-05-09T03:35:41.813Z,4.45
2024-05-09T03:38:09.708Z,4.55
2024-05-09T03:40:44.105Z,3.88
2024-05-09T03:43:11.505Z,3.63
2024-05-09T03:45:40.144Z,4.30
2024-05-09T03:48:08.484Z,3.40
2024-05-09T03:50:37.570Z,3.70
2024-05-09T03:53:05.639Z,3.45
2024-05-09T03:55:33.016Z,4.38
2024-05-09T03:58:00.537Z,4.28
2024-05-09T04:00:35.593Z,4.05
2024-05-09T04:03:11.348Z,4.28
2024-05-09T04:05:42.954Z,3.33
2024-05-09T04:08:13.239Z,3.92
2024-05-09T04:10:41.446Z,4.03
2024-05-09T04:13:10.350Z,4.30
2024-05-09T04:15:37.825Z,3.65
2024-05-09T04:18:05.614Z,3.22
2024-05-09T04:20:38.402Z,4.10
2024-05-09T04:23:10.857Z,4.60
2024-05-09T04:25:38.441Z,3.72
2024-05-09T04:28:05.917Z,3.63
2024-05-09T04:30:38.282Z,3.97
2024-05-09T04:33:10.906Z,4.78
2024-05-09T04:35:42.290Z,5.97
2024-05-09T04:38:10.109Z,4.55
2024-05-09T04:40:38.056Z,6.30
2024-05-09T04:43:06.993Z,6.05
2024-05-09T04:45:35.255Z,4.88
2024-05-09T04:48:03.159Z,4.35
2024-05-09T04:50:36.776Z,4.95
2024-05-09T04:53:10.865Z,5.35
2024-05-09T04:55:40.464Z,5.55
2024-05-09T04:58:10.797Z,4.20
2024-05-09T05:00:40.590Z,5.20
2024-05-09T05:03:13.401Z,4.45
2024-05-09T05:05:43.408Z,6.55
2024-05-09T05:08:16.867Z,5.57
2024-05-09T05:10:45.606Z,6.75
2024-05-09T05:13:18.267Z,6.47
2024-05-09T05:15:46.985Z,6.85
2024-05-09T05:18:17.200Z,5.55
2024-05-09T05:20:45.200Z,5.05
2024-05-09T05:23:14.342Z,6.18
2024-05-09T05:25:42.758Z,5.65
2024-05-09T05:28:10.742Z,6.78
2024-05-09T05:30:38.828Z,5.03
2024-05-09T05:33:07.614Z,6.90
2024-05-09T05:35:35.357Z,5.05
2024-05-09T05:38:04.624Z,4.82
2024-05-09T05:40:36.573Z,4.95
2024-05-09T05:43:06.406Z,5.32
2024-05-09T05:45:33.840Z,4.38
2024-05-09T05:48:04.628Z,3.40
2024-05-09T05:50:36.210Z,4.95
2024-05-09T05:53:10.278Z,6.57
2024-05-09T05:55:41.311Z,4.90
2024-05-09T05:58:15.291Z,6.23
2024-05-09T06:00:43.454Z,5.28
2024-05-09T06:03:13.446Z,4.47
2024-05-09T06:05:46.274Z,4.32
2024-05-09T06:08:13.942Z,4.47
2024-05-09T06:10:42.018Z,5.25
2024-05-09T06:13:14.083Z,5.93
2024-05-09T06:15:42.687Z,5.47
2024-05-09T06:18:12.156Z,5.15
2024-05-09T06:20:42.926Z,4.80
2024-05-09T06:23:14.953Z,5.57
2024-05-09T06:25:42.789Z,4.88
2024-05-09T06:28:10.800Z,4.93
2024-05-09T06:30:42.463Z,4.43
2024-05-09T06:33:15.947Z,4.35
2024-05-09T06:35:44.924Z,3.95
2024-05-09T06:38:12.645Z,3.85
2024-05-09T06:40:42.785Z,4.03
2024-05-09T06:43:12.607Z,3.55
2024-05-09T06:45:40.469Z,3.50
2024-05-09T06:48:11.611Z,3.47
2024-05-09T06:50:40.293Z,3.33
2024-05-09T06:53:12.507Z,4.28
2024-05-09T06:55:40.002Z,3.00
2024-05-09T06:58:11.754Z,2.67
2024-05-09T07:00:42.350Z,2.95
2024-05-09T07:03:17.184Z,2.60
2024-05-09T07:05:48.035Z,2.20
2024-05-09T07:08:19.354Z,4.00
2024-05-09T07:10:47.717Z,2.30
2024-05-09T07:13:18.181Z,2.05
2024-05-09T07:15:46.493Z,2.38
2024-05-09T07:18:41.945Z,2.80
2024-05-09T07:21:09.811Z,2.20
2024-05-09T07:23:39.174Z,2.22
2024-05-09T07:26:06.708Z,2.50
2024-05-09T07:28:34.546Z,2.10
2024-05-09T07:31:02.121Z,2.25
2024-05-09T07:33:32.122Z,2.47
2024-05-09T07:35:59.906Z,1.98
2024-05-09T07:38:27.642Z,1.98
2024-05-09T07:40:55.416Z,2.35
2024-05-09T07:43:28.798Z,2.10
2024-05-09T07:45:59.695Z,2.15
2024-05-09T07:56:30.068Z,1.60
2024-05-09T07:58:59.157Z,2.00
2024-05-09T08:01:28.368Z,2.10
2024-05-09T08:03:56.949Z,2.10
2024-05-09T08:06:26.218Z,1.80
2024-05-09T08:08:54.849Z,1.80
2024-05-09T08:11:28.213Z,1.83
2024-05-09T08:13:55.898Z,1.90
2024-05-09T08:16:26.968Z,2.15
2024-05-09T08:18:56.013Z,1.77
2024-05-09T08:21:46.811Z,2.10
2024-05-09T08:24:14.700Z,1.60
2024-05-09T08:26:46.417Z,1.90
2024-05-09T08:29:15.609Z,1.80
2024-05-09T08:31:44.921Z,1.83
2024-05-09T08:34:12.749Z,1.98
2024-05-09T08:36:41.837Z,1.95
2024-05-09T08:39:09.639Z,1.52
2024-05-09T08:41:42.216Z,1.50
2024-05-09T08:44:15.516Z,1.52
2024-05-09T08:46:59.149Z,2.05
2024-05-09T08:49:31.799Z,1.60
2024-05-09T08:52:01.710Z,1.67
2024-05-09T08:54:31.997Z,1.98
2024-05-09T08:57:02.294Z,2.00
2024-05-09T08:59:39.586Z,1.70
2024-05-09T09:02:08.995Z,1.48
2024-05-09T09:04:39.160Z,1.80
2024-05-09T09:07:07.189Z,1.52
2024-05-09T09:09:43.543Z,1.38
2024-05-09T09:12:13.384Z,1.67
2024-05-09T09:14:40.701Z,1.67
2024-05-09T09:17:17.642Z,1.60
2024-05-09T09:19:44.958Z,1.77
2024-05-09T09:22:12.446Z,1.80
2024-05-09T09:24:39.723Z,1.50
2024-05-09T09:27:07.884Z,1.60
2024-05-09T09:29:35.171Z,1.42
2024-05-09T09:32:04.204Z,1.45
2024-05-09T09:34:32.084Z,1.60
2024-05-09T09:37:10.590Z,1.70
2024-05-09T09:39:39.973Z,1.63
2024-05-09T09:42:07.388Z,1.52
2024-05-09T09:44:37.344Z,1.75
2024-05-09T09:47:08.722Z,1.85
2024-05-09T09:49:37.033Z,1.50
2024-05-09T09:52:05.583Z,1.60
2024-05-09T09:54:34.538Z,1.50
2024-05-09T09:57:03.711Z,1.52
2024-05-09T09:59:33.450Z,1.45
2024-05-09T10:02:00.946Z,1.52
2024-05-09T10:04:29.536Z,1.70
2024-05-09T10:07:07.737Z,1.60
2024-05-09T10:09:35.820Z,1.38
2024-05-09T10:12:16.724Z,1.50
2024-05-09T10:14:54.134Z,1.85
2024-05-09T10:17:21.416Z,1.50
2024-05-09T10:19:48.873Z,1.60
2024-05-09T10:22:28.112Z,1.80
2024-05-09T10:25:05.120Z,1.25
2024-05-09T10:27:32.823Z,1.65
2024-05-09T10:30:02.814Z,1.30
2024-05-09T10:32:38.613Z,1.27
2024-05-09T10:35:07.985Z,1.38
2024-05-09T10:37:35.747Z,1.30
2024-05-09T10:40:05.481Z,1.73
2024-05-09T10:42:36.268Z,1.52
2024-05-09T10:45:03.563Z,1.50
2024-05-09T10:47:30.918Z,1.30
2024-05-09T10:50:34.151Z,1.52
2024-05-09T10:53:07.873Z,1.63
2024-05-09T10:55:41.167Z,1.35
2024-05-09T10:58:43.078Z,1.25
2024-05-09T11:01:21.698Z,1.30
2024-05-09T11:07:20.771Z,1.30
2024-05-09T11:09:50.928Z,1.42
2024-05-09T11:12:20.610Z,1.38
2024-05-09T11:14:55.499Z,1.50
2024-05-09T11:20:16.751Z,1.55
2024-05-09T11:23:03.563Z,1.20
2024-05-09T11:25:33.741Z,1.48
2024-05-09T11:28:04.676Z,1.50
2024-05-09T11:30:40.318Z,1.40
2024-05-09T11:33:24.895Z,1.70
2024-05-09T11:35:58.058Z,1.38
2024-05-09T11:38:29.139Z,1.52
2024-05-09T11:45:36.687Z,1.17
2024-05-09T11:48:16.516Z,1.30
2024-05-09T11:50:54.363Z,0.93
2024-05-09T11:53:26.531Z,1.20
2024-05-09T11:55:55.064Z,1.25
2024-05-09T11:58:23.927Z,1.17
2024-05-09T12:00:52.019Z,1.30
2024-05-09T12:03:31.239Z,1.40
2024-05-09T12:05:59.009Z,1.45
2024-05-09T12:08:27.872Z,1.52
2024-05-09T12:10:55.329Z,1.45
2024-05-09T12:13:22.926Z,1.33
2024-05-09T12:15:50.345Z,1.77
2024-05-09T12:18:17.688Z,1.20
2024-05-09T12:20:44.964Z,1.20
2024-05-09T12:23:12.291Z,1.20
2024-05-09T12:25:40.265Z,1.17
2024-05-09T12:28:08.669Z,1.30
2024-05-09T12:30:40.759Z,1.38
2024-05-09T12:33:13.594Z,1.30
2024-05-09T12:35:44.200Z,1.40
2024-05-09T12:38:15.601Z,1.27
2024-05-09T12:40:43.480Z,1.30
2024-05-09T12:43:11.768Z,1.30
2024-05-09T12:45:40.554Z,1.50
2024-05-09T12:48:12.454Z,1.30
2024-05-09T12:50:41.730Z,1.30
2024-05-09T12:53:09.559Z,1.15
2024-05-09T12:55:44.422Z,1.25
2024-05-09T12:58:22.411Z,1.13
2024-05-09T13:00:52.280Z,1.10
2024-05-09T13:03:20.703Z,1.50
2024-05-09T13:17:29.249Z,1.15
2024-05-09T13:20:22.843Z,1.42
2024-05-09T13:31:59.178Z,1.20
2024-05-09T13:34:39.732Z,1.20
2024-05-09T13:49:20.754Z,1.10
2024-05-09T13:53:04.574Z,1.20
2024-05-09T14:04:18.329Z,1.03
2024-05-09T14:19:25.515Z,1.15
2024-05-09T14:22:07.166Z,1.20
2024-05-09T14:27:37.543Z,1.30
2024-05-09T14:32:52.059Z,1.05
2024-05-09T14:35:31.428Z,1.00
2024-05-09T14:41:10.791Z,1.00
2024-05-09T14:44:29.148Z,0.80
2024-05-09T14:49:44.621Z,1.10
2024-05-09T14:52:18.928Z,1.00
2024-05-09T14:55:00.563Z,1.25
2024-05-09T14:58:01.733Z,1.08
2024-05-09T15:00:50.322Z,1.25
2024-05-09T15:03:34.860Z,1.05
2024-05-09T15:10:01.922Z,0.95
2024-05-09T15:15:24.787Z,1.00
2024-05-09T15:30:50.982Z,1.30
2024-05-09T15:36:56.043Z,1.17
2024-05-09T15:40:04.341Z,1.10
2024-05-09T15:43:23.348Z,1.17
2024-05-09T15:49:06.214Z,1.20
2024-05-09T15:52:04.569Z,1.33
2024-05-09T15:54:37.462Z,1.40
2024-05-09T15:57:33.350Z,1.00
2024-05-09T16:00:37.014Z,1.15
2024-05-09T16:04:14.864Z,1.25
2024-05-09T16:06:49.613Z,1.13
2024-05-09T16:09:19.510Z,0.90
2024-05-09T16:12:16.930Z,1.23
2024-05-09T16:22:59.900Z,1.17
2024-05-09T17:38:42.973Z,1.45
2024-05-09T17:41:10.490Z,1.50
2024-05-09T17:43:38.008Z,1.67
2024-05-09T17:46:08.513Z,1.40
2024-05-09T17:48:45.525Z,1.75
2024-05-09T17:51:26.874Z,1.58
2024-05-09T17:53:54.730Z,2.00
2024-05-09T17:56:31.347Z,1.70
2024-05-09T17:59:09.205Z,1.58
2024-05-09T18:01:41.225Z,1.30
2024-05-09T18:04:10.029Z,1.20
2024-05-09T18:06:37.694Z,1.80
2024-05-09T18:09:15.953Z,1.38
2024-05-09T18:11:43.729Z,1.63
2024-05-09T18:14:15.149Z,1.40
2024-05-09T18:16:42.669Z,1.50
2024-05-09T18:19:10.285Z,1.35
2024-05-09T18:21:37.719Z,1.88
2024-05-09T18:24:05.514Z,1.55
2024-05-09T18:26:33.005Z,1.65
2024-05-09T18:29:42.397Z,1.90
2024-05-09T18:32:12.526Z,1.73
2024-05-09T18:34:40.646Z,1.50
2024-05-09T18:40:35.833Z,1.60
2024-05-09T18:43:08.478Z,1.77
2024-05-09T18:45:57.124Z,1.70
2024-05-09T18:48:44.892Z,2.03
2024-05-09T18:51:42.924Z,1.83
2024-05-09T18:54:10.924Z,1.70
2024-05-09T18:56:41.699Z,1.83
2024-05-09T18:59:09.377Z,1.97
2024-05-09T19:01:41.189Z,2.17
2024-05-09T19:04:09.847Z,1.98
2024-05-09T19:06:39.159Z,1.50
2024-05-09T19:09:07.015Z,1.80
2024-05-09T19:11:40.399Z,1.60
2024-05-09T19:14:08.240Z,1.90
2024-05-09T19:16:38.579Z,1.92
2024-05-09T19:19:07.161Z,2.03
2024-05-09T19:21:37.957Z,1.60
2024-05-09T19:24:12.737Z,1.67
2024-05-09T19:26:48.234Z,2.10
2024-05-09T19:29:15.878Z,2.20
2024-05-09T19:31:43.334Z,2.22
2024-05-09T19:34:11.056Z,1.85
2024-05-09T19:36:44.109Z,1.73
2024-05-09T19:39:19.698Z,1.43
2024-05-09T19:41:47.559Z,2.08
2024-05-09T19:44:15.151Z,2.13
2024-05-09T19:46:43.619Z,2.05
2024-05-09T19:49:11.584Z,1.95
2024-05-09T19:51:39.442Z,2.00
2024-05-09T19:54:07.031Z,2.10
2024-05-09T19:56:34.557Z,1.90
2024-05-09T19:59:01.914Z,2.17
2024-05-09T20:01:29.490Z,2.65
2024-05-09T20:03:59.367Z,2.00
2024-05-09T20:06:28.271Z,2.47
2024-05-09T20:08:57.495Z,2.08
2024-05-09T20:11:26.258Z,2.20
2024-05-09T20:13:53.625Z,2.33
2024-05-09T20:16:21.299Z,2.75
2024-05-09T20:18:48.938Z,2.45
2024-05-09T20:21:16.624Z,2.20
2024-05-09T20:23:44.100Z,2.55
2024-05-09T20:26:11.876Z,2.70
2024-05-09T20:28:43.439Z,2.50
2024-05-09T20:31:24.609Z,2.20
2024-05-09T20:34:28.945Z,2.03
2024-05-09T20:37:17.179Z,2.17
2024-05-09T20:43:19.621Z,2.30
2024-05-09T20:45:53.215Z,2.53
2024-05-09T20:48:23.464Z,2.03
2024-05-09T20:53:57.835Z,1.75
2024-05-09T20:59:51.991Z,2.00
2024-05-09T21:02:26.906Z,1.77
2024-05-09T21:05:01.478Z,1.92
2024-05-09T21:07:38.441Z,1.73
2024-05-09T21:10:19.550Z,1.90
2024-05-09T21:12:59.906Z,1.70
2024-05-09T21:21:42.988Z,2.25
2024-05-09T21:24:19.339Z,2.10
2024-05-09T21:26:51.022Z,1.90
2024-05-09T21:29:21.737Z,1.83
2024-05-09T21:31:51.014Z,1.97
2024-05-09T21:34:44.861Z,2.53
2024-05-09T21:37:13.838Z,3.63
2024-05-09T21:39:45.772Z,4.45
2024-05-09T21:42:16.508Z,5.88
2024-05-09T21:44:47.278Z,4.60
2024-05-09T21:47:20.907Z,5.80
2024-05-09T21:49:59.775Z,6.45
2024-05-09T21:52:28.963Z,5.95
2024-05-09T21:54:58.478Z,5.35
2024-05-09T21:57:37.082Z,4.18
2024-05-09T22:00:28.457Z,4.28
2024-05-09T22:03:08.139Z,4.43
2024-05-09T22:05:47.192Z,4.15
2024-05-09T22:11:18.528Z,3.60
2024-05-09T22:13:57.477Z,3.28
2024-05-09T22:16:36.912Z,3.40
2024-05-09T22:19:13.699Z,3.05
2024-05-09T22:21:47.542Z,2.97
2024-05-09T22:24:17.911Z,3.13
2024-05-09T22:29:56.559Z,3.17
2024-05-09T22:32:25.391Z,3.33
2024-05-09T22:34:55.559Z,2.80
2024-05-09T22:40:14.918Z,2.40
2024-05-09T22:42:55.376Z,2.72
2024-05-09T22:45:25.844Z,2.97
2024-05-09T22:47:55.490Z,2.95
2024-05-09T22:50:27.102Z,2.55
2024-05-09T22:53:00.905Z,2.28
2024-05-09T22:55:35.637Z,2.85
2024-05-09T22:58:03.017Z,2.13
2024-05-09T23:00:32.357Z,2.20
2024-05-09T23:09:24.904Z,2.63
2024-05-09T23:11:52.562Z,2.20
2024-05-09T23:14:21.191Z,2.10
2024-05-09T23:16:49.047Z,2.70
2024-05-09T23:19:17.665Z,2.03
2024-05-09T23:21:45.117Z,2.58
2024-05-09T23:24:13.644Z,2.55
2024-05-09T23:26:45.249Z,1.83
2024-05-09T23:29:12.883Z,2.05
2024-05-09T23:31:41.787Z,1.98
2024-05-09T23:34:10.578Z,2.20
2024-05-09T23:36:39.348Z,2.60
2024-05-09T23:41:37.076Z,2.50
2024-05-09T23:44:04.640Z,2.45
2024-05-09T23:46:33.993Z,2.10
2024-05-09T23:49:04.811Z,2.25
2024-05-09T23:51:32.681Z,2.67
2024-05-09T23:54:00.135Z,2.42
2024-05-09T23:56:27.628Z,2.20
2024-05-09T23:58:57.674Z,2.42
